Oklahoma City, Oklahoma
Current Conditions -  °F | °C
As of 11:52 PM on Tuesday 21 Oct 2014 (Local Time) from KOKC Reporting Station
Clear Clear  
Wind Chill: 61°   Ceiling: Unl
Heat Index: 61°   Visibility: 10mi
Dew Point: 56°   Wind: 7mph
Humidity: 83%   Direction: 150°SSE
Pressure: 30.07"   Gusts: NA
Location:  35.47°N, 97.52°W
Report Text: KOKC 220452Z 15006KT 10SM CLR 16/13 A3007 RMK AO2 SLP172 T01610133
Loading
Personal Weather Stations






























Interactive Weather Map
Tropical Storm Tracking
New forecast layout! Learn more

10-Day Weather Forecast

Advertisements
Track Severe Weather on mobile